Time;durP1;ratioP1;P1;durP2;ratioP2;P2;SDS_P1;SDS_P2;PMS_P1;PMS_P2;Temp;Humidity;BMP_temperature;BMP_pressure;BME280_temperature;BME280_humidity;BME280_pressure;Samples;Min_cycle;Max_cycle;Signal;HPM_P1;HPM_P2
2022/12/24 00:00:37;;;;;;;102.07;53.83;;;;;;;-0.21;100.00;93012.44;5068613;28;20373;-72
2022/12/24 00:03:04;;;;;;;78.88;45.13;;;;;;;-0.22;100.00;93011.66;5068919;28;20061;-72
2022/12/24 00:05:31;;;;;;;94.57;52.55;;;;;;;-0.27;100.00;93019.66;5068709;28;20091;-72
2022/12/24 00:07:58;;;;;;;91.65;51.47;;;;;;;-0.32;100.00;93016.78;5068916;28;20462;-72
2022/12/24 00:10:24;;;;;;;90.97;49.50;;;;;;;-0.23;100.00;93016.84;5068547;28;20086;-72
2022/12/24 00:12:51;;;;;;;90.22;50.75;;;;;;;-0.23;100.00;93027.72;5068862;28;20094;-72
2022/12/24 00:15:19;;;;;;;81.60;49.78;;;;;;;-0.35;100.00;93017.09;5042820;28;20486;-72
2022/12/24 00:17:46;;;;;;;90.93;54.83;;;;;;;-0.35;100.00;93024.66;5068757;28;20094;-72
2022/12/24 00:20:13;;;;;;;84.85;50.22;;;;;;;-0.33;100.00;93022.78;5068679;28;20040;-72
2022/12/24 00:22:39;;;;;;;90.80;53.25;;;;;;;-0.35;100.00;93031.44;5068875;28;20443;-72
2022/12/24 00:25:07;;;;;;;95.20;59.05;;;;;;;-0.37;100.00;93031.56;5068615;28;20044;-72
2022/12/24 00:27:33;;;;;;;98.13;57.65;;;;;;;-0.47;100.00;93008.94;5068454;28;20109;-72
2022/12/24 00:30:00;;;;;;;110.03;59.30;;;;;;;-0.44;100.00;93013.72;5068633;28;20467;-72
2022/12/24 00:32:28;;;;;;;102.30;58.10;;;;;;;-0.39;100.00;93014.97;5068444;28;20040;-72
2022/12/24 00:34:55;;;;;;;98.15;55.65;;;;;;;-0.37;100.00;93005.56;5048590;28;20095;-71
2022/12/24 00:37:22;;;;;;;99.43;54.25;;;;;;;-0.43;100.00;93001.88;5060064;28;20106;-71
2022/12/24 00:39:48;;;;;;;102.78;55.50;;;;;;;-0.63;100.00;92974.31;5068119;28;20048;-71
2022/12/24 00:42:15;;;;;;;98.55;54.88;;;;;;;-0.37;100.00;93011.38;5067857;28;20086;-72
2022/12/24 00:44:42;;;;;;;95.00;55.38;;;;;;;-0.38;100.00;93001.44;5067718;28;20197;-72
2022/12/24 00:47:08;;;;;;;90.95;53.28;;;;;;;-0.41;100.00;93005.84;5068195;28;20405;-72
2022/12/24 00:49:37;;;;;;;96.63;54.83;;;;;;;-0.40;100.00;93006.63;5067916;28;20090;-72
2022/12/24 00:52:04;;;;;;;99.57;54.80;;;;;;;-0.42;100.00;93005.97;5055074;28;20200;-72
2022/12/24 00:54:31;;;;;;;100.93;55.17;;;;;;;-0.43;100.00;93009.44;5047843;28;20044;-73
2022/12/24 00:56:58;;;;;;;95.60;54.95;;;;;;;-0.44;100.00;93012.91;5048749;28;20045;-72
2022/12/24 00:59:24;;;;;;;101.40;57.28;;;;;;;-0.73;100.00;92979.47;5047635;28;20493;-72
2022/12/24 01:01:51;;;;;;;108.53;61.75;;;;;;;-0.57;100.00;93021.66;5048660;28;20095;-72
2022/12/24 01:07:03;;;;;;;104.68;62.92;;;;;;;-0.69;100.00;93015.25;5048803;28;20075;-72
2022/12/24 01:09:30;;;;;;;109.93;65.60;;;;;;;-0.63;100.00;93012.16;5047979;28;20101;-72
2022/12/24 01:11:56;;;;;;;109.65;62.28;;;;;;;-0.60;100.00;93019.41;5048741;28;20041;-71
2022/12/24 01:14:23;;;;;;;94.28;57.80;;;;;;;-0.59;100.00;93026.06;5047751;28;20056;-70
2022/12/24 01:16:50;;;;;;;106.75;58.22;;;;;;;-0.62;100.00;93023.81;5047398;28;20167;-71
2022/12/24 01:19:16;;;;;;;96.88;58.35;;;;;;;-0.72;100.00;93010.50;5071536;28;20045;-71
2022/12/24 01:21:43;;;;;;;98.30;57.00;;;;;;;-0.68;100.00;93029.47;5069578;28;20543;-72
2022/12/24 01:24:14;;;;;;;94.38;55.95;;;;;;;-0.65;100.00;93018.28;5051548;28;20045;-72
2022/12/24 01:26:41;;;;;;;94.25;54.65;;;;;;;-0.62;100.00;93017.97;5051511;28;20037;-71
2022/12/24 01:29:07;;;;;;;91.28;50.42;;;;;;;-0.63;100.00;93018.91;5051371;28;20049;-70
2022/12/24 01:31:34;;;;;;;83.28;48.85;;;;;;;-0.75;100.00;92995.69;5051456;28;20057;-70
2022/12/24 01:34:01;;;;;;;79.90;47.17;;;;;;;-0.68;100.00;93017.63;5052005;28;20087;-70
2022/12/24 01:36:28;;;;;;;71.60;44.90;;;;;;;-0.69;100.00;93017.78;5051047;28;20049;-70
2022/12/24 01:38:54;;;;;;;76.88;46.85;;;;;;;-0.73;100.00;93024.06;5052274;28;20452;-70
2022/12/24 01:44:20;;;;;;;74.55;45.85;;;;;;;-0.83;100.00;93014.06;5051905;28;20056;-70
2022/12/24 01:46:48;;;;;;;74.53;44.63;;;;;;;-0.83;100.00;93009.78;5051247;28;20091;-70
2022/12/24 01:49:16;;;;;;;72.07;42.58;;;;;;;-0.80;100.00;93008.69;5066461;28;20496;-70
2022/12/24 01:51:46;;;;;;;72.95;43.95;;;;;;;-0.85;100.00;93019.22;5070808;28;20056;-71
2022/12/24 01:54:18;;;;;;;92.22;55.13;;;;;;;-1.07;100.00;93025.47;5057394;28;20136;-71
2022/12/24 01:56:51;;;;;;;111.28;61.10;;;;;;;-1.27;100.00;93023.09;5050783;28;20443;-71
2022/12/24 01:59:19;;;;;;;100.25;56.75;;;;;;;-1.16;100.00;93017.03;5051565;28;20049;-72
2022/12/24 02:01:48;;;;;;;113.60;62.58;;;;;;;-1.08;100.00;93006.25;5050649;28;20122;-72
2022/12/24 02:04:23;;;;;;;129.93;70.80;;;;;;;-1.02;100.00;93008.19;5051787;28;20044;-72
2022/12/24 02:06:50;;;;;;;111.45;61.67;;;;;;;-0.96;100.00;92997.53;5050782;28;20041;-72
2022/12/24 02:09:17;;;;;;;121.43;67.05;;;;;;;-0.87;100.00;93000.13;5051541;28;20041;-72
2022/12/24 02:11:46;;;;;;;118.25;61.50;;;;;;;-0.78;100.00;92993.44;5050269;28;20044;-72
2022/12/24 02:14:14;;;;;;;121.60;64.13;;;;;;;-0.71;100.00;93002.00;5051355;28;20107;-72
2022/12/24 02:16:47;;;;;;;133.63;62.88;;;;;;;-0.68;100.00;92997.44;5050255;28;20049;-72
2022/12/24 02:19:51;;;;;;;114.18;61.90;;;;;;;-0.59;100.00;93010.13;5051218;28;20443;-72
2022/12/24 02:22:29;;;;;;;114.20;56.97;;;;;;;-0.61;100.00;93019.59;5050236;28;20092;-72
2022/12/24 02:25:25;;;;;;;125.05;61.70;;;;;;;-0.68;100.00;93017.63;5051411;28;20041;-72
2022/12/24 02:28:00;;;;;;;136.20;74.68;;;;;;;-0.81;100.00;93018.00;5049259;28;20055;-72
2022/12/24 02:30:32;;;;;;;131.93;69.30;;;;;;;-0.92;100.00;93009.88;5051000;28;20045;-72
2022/12/24 02:33:14;;;;;;;150.35;82.47;;;;;;;-1.12;100.00;92990.63;5050264;28;20067;-72
2022/12/24 02:35:48;;;;;;;151.60;86.30;;;;;;;-0.88;100.00;93004.38;5050982;28;20445;-72
2022/12/24 02:38:20;;;;;;;128.38;72.05;;;;;;;-0.83;100.00;93012.31;5050094;28;20045;-72
2022/12/24 02:40:52;;;;;;;127.05;72.55;;;;;;;-0.77;100.00;93008.41;5051221;28;20052;-72
2022/12/24 02:43:22;;;;;;;120.82;70.95;;;;;;;-0.76;100.00;92999.91;5050118;28;20045;-72
2022/12/24 02:45:55;;;;;;;130.50;73.50;;;;;;;-1.04;100.00;92961.38;5050624;28;20562;-72
2022/12/24 02:48:24;;;;;;;149.77;81.53;;;;;;;-0.83;100.00;92993.88;5049455;28;20052;-72
2022/12/24 02:51:04;;;;;;;126.63;77.43;;;;;;;-0.81;100.00;92997.84;5056514;28;20052;-72
2022/12/24 02:53:31;;;;;;;158.63;90.18;;;;;;;-0.88;100.00;92996.03;5069723;28;20048;-72
2022/12/24 02:56:37;;;;;;;143.52;88.38;;;;;;;-1.08;100.00;92981.03;5058067;28;20045;-72
2022/12/24 02:59:34;;;;;;;123.40;79.07;;;;;;;-1.12;100.00;92967.94;4987493;28;20043;-72
2022/12/24 03:02:09;;;;;;;129.48;80.03;;;;;;;-1.06;100.00;92976.66;5045442;28;20055;-72
2022/12/24 03:04:48;;;;;;;141.25;85.10;;;;;;;-1.01;100.00;92979.56;5049812;28;20046;-72
2022/12/24 03:07:20;;;;;;;144.00;88.55;;;;;;;-1.02;100.00;92962.03;5048352;28;20049;-72
2022/12/24 03:10:04;;;;;;;132.15;83.93;;;;;;;-0.97;100.00;92967.44;5049395;28;20049;-72
2022/12/24 03:12:35;;;;;;;150.10;86.22;;;;;;;-0.99;100.00;92965.06;5048957;28;20100;-72
2022/12/24 03:15:04;;;;;;;144.80;84.43;;;;;;;-0.93;100.00;92965.41;5049151;28;20057;-72
2022/12/24 03:17:37;;;;;;;133.00;78.68;;;;;;;-0.97;100.00;92960.66;5050007;28;20045;-72
2022/12/24 03:20:05;;;;;;;120.43;72.05;;;;;;;-0.92;100.00;92965.28;5049019;28;20041;-72
2022/12/24 03:22:34;;;;;;;109.65;68.95;;;;;;;-1.09;100.00;92939.94;5049942;28;20045;-72
2022/12/24 03:25:01;;;;;;;104.30;65.93;;;;;;;-1.06;100.00;92963.25;5049265;28;20049;-72
2022/12/24 03:27:29;;;;;;;99.70;60.97;;;;;;;-1.10;100.00;92971.09;5064935;28;20044;-72
2022/12/24 03:29:57;;;;;;;102.60;58.55;;;;;;;-1.08;100.00;92961.69;5068860;28;20045;-72
2022/12/24 03:32:25;;;;;;;87.40;50.85;;;;;;;-1.35;100.00;92960.00;5055363;28;20056;-72
2022/12/24 03:34:53;;;;;;;87.97;54.35;;;;;;;-1.28;100.00;92962.75;5048947;28;20463;-72
2022/12/24 03:37:20;;;;;;;97.57;53.58;;;;;;;-1.42;100.00;92953.97;5049744;28;21205;-71
2022/12/24 03:39:47;;;;;;;93.30;56.33;;;;;;;-1.69;100.00;92925.34;5048772;28;20088;-72
2022/12/24 03:42:14;;;;;;;91.28;53.53;;;;;;;-1.48;100.00;92961.16;5049692;28;20526;-72
2022/12/24 03:44:40;;;;;;;89.85;54.38;;;;;;;-1.39;100.00;92963.75;5048993;28;20037;-72
2022/12/24 03:47:07;;;;;;;88.38;54.90;;;;;;;-1.49;100.00;92964.59;5049876;28;20045;-72
2022/12/24 03:49:34;;;;;;;93.03;54.97;;;;;;;-1.58;100.00;92967.97;5048899;28;20095;-72
2022/12/24 03:52:02;;;;;;;112.65;65.97;;;;;;;-1.54;100.00;92969.28;5059071;28;20493;-72
2022/12/24 03:54:29;;;;;;;113.28;67.85;;;;;;;-1.59;100.00;92963.88;5048640;28;20114;-72
2022/12/24 03:56:55;;;;;;;111.28;63.83;;;;;;;-1.47;100.00;92977.06;5048705;28;20049;-72
2022/12/24 03:59:22;;;;;;;117.20;67.93;;;;;;;-1.57;100.00;92978.84;5048668;28;20095;-72
2022/12/24 04:01:49;;;;;;;128.85;73.75;;;;;;;-1.58;100.00;92980.56;5048757;28;20040;-72
2022/12/24 04:04:15;;;;;;;136.05;74.90;;;;;;;-1.75;100.00;92987.16;5048770;28;20045;-73
2022/12/24 04:06:42;;;;;;;179.13;81.45;;;;;;;-1.99;100.00;92992.69;5048272;28;20041;-72
2022/12/24 04:09:11;;;;;;;154.60;82.90;;;;;;;-1.93;100.00;92992.94;5048678;28;20041;-72
2022/12/24 04:11:37;;;;;;;157.55;82.45;;;;;;;-2.12;100.00;93000.53;5048630;28;20408;-72
2022/12/24 04:14:04;;;;;;;134.32;75.97;;;;;;;-2.25;100.00;92995.81;5048107;28;20045;-72
2022/12/24 04:16:31;;;;;;;154.50;82.32;;;;;;;-2.01;100.00;93005.41;5048540;28;20049;-72
2022/12/24 04:18:57;;;;;;;138.88;79.13;;;;;;;-1.77;100.00;93011.66;5048573;28;20041;-73
2022/12/24 04:21:24;;;;;;;123.63;71.03;;;;;;;-1.62;100.00;93022.88;5048376;28;20053;-72
2022/12/24 04:23:51;;;;;;;130.10;72.35;;;;;;;-1.58;100.00;93018.34;5048171;28;20045;-72
2022/12/24 04:26:19;;;;;;;113.28;63.97;;;;;;;-1.64;100.00;93026.47;5048551;28;20041;-72
2022/12/24 04:28:46;;;;;;;102.88;62.72;;;;;;;-1.46;100.00;93038.31;5048314;28;20045;-72
2022/12/24 04:31:14;;;;;;;115.20;67.25;;;;;;;-1.37;100.00;93028.19;5048490;28;20114;-72
2022/12/24 04:33:41;;;;;;;131.57;74.95;;;;;;;-1.50;100.00;93048.69;5048358;28;20045;-72
2022/12/24 04:36:12;;;;;;;118.00;70.47;;;;;;;-1.34;100.00;93049.81;5048049;28;20095;-72
2022/12/24 04:38:38;;;;;;;128.90;65.47;;;;;;;-1.61;100.00;93049.63;5046887;28;20484;-72
2022/12/24 04:41:08;;;;;;;111.28;61.90;;;;;;;-1.57;100.00;93050.16;5048135;28;20037;-73
2022/12/24 04:43:36;;;;;;;107.03;58.53;;;;;;;-1.48;100.00;93053.59;5047936;28;20090;-72
2022/12/24 04:46:06;;;;;;;126.57;62.60;;;;;;;-1.40;100.00;93055.38;5047782;28;20489;-72
2022/12/24 04:48:34;;;;;;;98.65;57.08;;;;;;;-1.29;100.00;93051.91;5047750;28;20439;-73
2022/12/24 04:51:01;;;;;;;97.13;56.58;;;;;;;-1.24;100.00;93048.00;5055120;28;20037;-73
2022/12/24 04:53:28;;;;;;;107.10;59.88;;;;;;;-1.19;100.00;93045.06;5071603;28;20041;-73
2022/12/24 04:55:55;;;;;;;106.20;56.95;;;;;;;-1.17;100.00;93047.47;5071847;28;20044;-72
2022/12/24 04:58:22;;;;;;;98.18;52.60;;;;;;;-1.16;100.00;93037.22;5071700;28;20848;-72
2022/12/24 05:00:50;;;;;;;107.43;58.22;;;;;;;-1.11;100.00;93039.31;5071700;28;20499;-73
2022/12/24 05:03:16;;;;;;;117.47;63.25;;;;;;;-1.06;100.00;93034.66;5071991;28;20090;-72
2022/12/24 05:05:43;;;;;;;130.57;70.60;;;;;;;-1.06;100.00;93019.53;5072224;28;20044;-73
2022/12/24 05:08:10;;;;;;;96.43;51.85;;;;;;;-1.04;100.00;93015.13;5071859;28;20041;-73
2022/12/24 05:10:37;;;;;;;87.35;50.45;;;;;;;-1.04;100.00;93020.16;5072210;28;20048;-72
2022/12/24 05:13:04;;;;;;;93.05;50.28;;;;;;;-1.05;100.00;93012.75;5072081;28;20097;-72
2022/12/24 05:15:31;;;;;;;88.22;48.72;;;;;;;-1.09;100.00;93002.16;5072053;28;20439;-73
2022/12/24 05:17:59;;;;;;;92.85;51.53;;;;;;;-1.07;100.00;93005.31;5071850;28;20091;-72
2022/12/24 05:20:26;;;;;;;102.10;53.25;;;;;;;-1.14;100.00;93009.34;5071842;28;20095;-72
2022/12/24 05:28:35;;;;;;;135.65;70.55;;;;;;;-1.16;100.00;93018.78;5028862;28;20096;-73
2022/12/24 05:31:01;;;;;;;118.20;58.80;;;;;;;-1.21;100.00;93019.19;5060908;28;20515;-73
2022/12/24 05:33:29;;;;;;;108.38;57.90;;;;;;;-1.22;100.00;93008.34;5071556;28;20052;-73
2022/12/24 05:35:56;;;;;;;122.05;64.40;;;;;;;-1.31;100.00;93010.94;5071293;28;20049;-73
2022/12/24 05:38:23;;;;;;;117.80;65.32;;;;;;;-1.43;100.00;93003.53;5071488;28;20416;-73
2022/12/24 05:40:49;;;;;;;121.50;71.78;;;;;;;-1.71;100.00;92975.06;5071496;28;20110;-73
2022/12/24 05:43:16;;;;;;;122.47;69.28;;;;;;;-1.54;100.00;93003.75;5071244;28;20484;-74
2022/12/24 05:45:43;;;;;;;133.25;69.45;;;;;;;-1.55;100.00;93007.19;5071092;28;20053;-73
2022/12/24 05:48:09;;;;;;;123.05;63.15;;;;;;;-1.67;100.00;93009.13;5071214;28;20048;-73
2022/12/24 05:50:40;;;;;;;127.55;63.13;;;;;;;-1.77;100.00;93002.41;5070904;28;20059;-73
2022/12/24 05:53:06;;;;;;;137.80;62.95;;;;;;;-1.77;100.00;92996.56;5071165;28;20102;-73
2022/12/24 05:55:33;;;;;;;115.28;58.10;;;;;;;-1.90;100.00;92995.16;5070777;28;20052;-73
2022/12/24 05:58:00;;;;;;;102.13;54.30;;;;;;;-1.90;100.00;92989.34;5071138;28;20044;-73
2022/12/24 06:00:27;;;;;;;110.25;58.67;;;;;;;-1.89;100.00;93004.28;5070738;28;20101;-72
2022/12/24 06:02:54;;;;;;;121.43;59.65;;;;;;;-1.74;100.00;93013.91;5071051;28;20053;-71
2022/12/24 06:05:21;;;;;;;107.75;56.72;;;;;;;-1.72;100.00;93014.56;5071078;28;20170;-71
2022/12/24 06:07:49;;;;;;;127.75;62.63;;;;;;;-1.71;100.00;93015.38;5059710;28;20060;-72
2022/12/24 06:10:16;;;;;;;130.90;65.72;;;;;;;-1.73;100.00;93014.72;5056598;28;20052;-71
2022/12/24 06:12:42;;;;;;;118.88;63.72;;;;;;;-1.68;100.00;93020.91;5070845;28;20044;-71
2022/12/24 06:15:10;;;;;;;118.18;62.28;;;;;;;-1.58;100.00;93033.47;5070855;28;20057;-72
2022/12/24 06:17:36;;;;;;;127.97;65.97;;;;;;;-1.48;100.00;93028.41;5070451;28;20550;-72
2022/12/24 06:20:04;;;;;;;106.70;58.38;;;;;;;-1.43;100.00;93021.19;5070167;28;20086;-72
2022/12/24 06:22:30;;;;;;;113.50;63.15;;;;;;;-1.43;100.00;93018.66;5056576;28;20107;-73
2022/12/24 06:24:58;;;;;;;102.20;61.22;;;;;;;-1.39;100.00;93026.75;5068606;28;20044;-72
2022/12/24 06:27:25;;;;;;;114.47;63.28;;;;;;;-1.32;100.00;93020.22;5069614;28;20053;-73
2022/12/24 06:29:52;;;;;;;136.20;76.35;;;;;;;-1.30;100.00;93030.94;5070593;28;20056;-73
2022/12/24 06:32:20;;;;;;;114.75;67.47;;;;;;;-1.33;100.00;93030.41;5070196;28;20048;-72
2022/12/24 06:34:47;;;;;;;119.95;64.55;;;;;;;-1.35;100.00;93033.06;5070405;28;20090;-72
2022/12/24 06:37:17;;;;;;;109.22;62.90;;;;;;;-1.24;100.00;93042.97;5068931;28;20049;-72
2022/12/24 06:39:44;;;;;;;108.85;62.78;;;;;;;-1.19;100.00;93044.28;5058431;28;20127;-73
2022/12/24 06:42:13;;;;;;;107.72;63.65;;;;;;;-1.29;100.00;93045.09;5069644;28;20044;-72
2022/12/24 06:44:39;;;;;;;139.07;74.20;;;;;;;-1.44;100.00;93031.41;5070142;28;20098;-73
2022/12/24 06:47:06;;;;;;;123.55;67.65;;;;;;;-1.36;100.00;93049.94;5069792;28;20110;-73
2022/12/24 06:49:33;;;;;;;93.25;56.35;;;;;;;-1.22;100.00;93038.59;5069707;28;20094;-73
2022/12/24 06:52:00;;;;;;;97.28;57.28;;;;;;;-1.07;100.00;93035.56;5069490;28;20052;-73
2022/12/24 06:54:26;;;;;;;94.82;61.70;;;;;;;-0.90;100.00;93034.00;5070178;28;20048;-73
2022/12/24 06:56:53;;;;;;;92.95;61.00;;;;;;;-0.77;100.00;93028.59;5069387;28;20057;-72
2022/12/24 06:59:21;;;;;;;92.45;58.63;;;;;;;-0.60;100.00;93039.59;5070008;28;20045;-72
2022/12/24 07:01:48;;;;;;;88.50;55.90;;;;;;;-0.47;100.00;93040.97;5069789;28;20048;-73
2022/12/24 07:04:15;;;;;;;82.03;51.22;;;;;;;-0.36;100.00;93038.22;5069266;28;20052;-73
2022/12/24 07:06:42;;;;;;;83.93;51.38;;;;;;;-0.25;100.00;93033.84;5069784;28;20044;-73
2022/12/24 07:09:12;;;;;;;84.45;49.92;;;;;;;-0.44;100.00;93000.28;5069578;28;20050;-73
2022/12/24 07:11:39;;;;;;;210.63;125.60;;;;;;;-0.12;100.00;93030.94;5069275;28;20504;-73
2022/12/24 07:14:06;;;;;;;111.78;64.10;;;;;;;-0.26;100.00;93002.78;5068672;28;20049;-73
2022/12/24 07:16:34;;;;;;;115.63;65.90;;;;;;;0.09;100.00;93049.06;5069052;28;20090;-73
2022/12/24 07:19:01;;;;;;;114.22;70.43;;;;;;;0.15;100.00;93041.81;5069231;28;20500;-72
2022/12/24 07:21:28;;;;;;;116.65;70.78;;;;;;;0.17;100.00;93040.72;5069383;28;20048;-73
2022/12/24 07:23:54;;;;;;;135.38;81.15;;;;;;;0.20;100.00;93039.66;5069293;28;20044;-73
2022/12/24 07:26:21;;;;;;;102.00;66.43;;;;;;;0.23;100.00;93041.88;5069355;28;20097;-73
2022/12/24 07:28:48;;;;;;;441.63;311.05;;;;;;;0.26;100.00;93041.56;5069280;28;20048;-73
2022/12/24 07:31:14;;;;;;;204.07;130.30;;;;;;;0.33;100.00;93044.28;5069315;28;20048;-73
2022/12/24 07:33:42;;;;;;;163.00;101.90;;;;;;;0.39;100.00;93052.06;5069256;28;20466;-73
2022/12/24 07:36:14;;;;;;;157.55;102.10;;;;;;;0.44;100.00;93048.28;5069097;28;20052;-73
2022/12/24 07:38:41;;;;;;;135.82;88.40;;;;;;;0.54;100.00;93048.94;5069148;28;20045;-73
2022/12/24 07:41:08;;;;;;;135.30;88.97;;;;;;;0.60;100.00;93039.97;5069278;28;20045;-73
2022/12/24 07:43:35;;;;;;;132.25;84.85;;;;;;;0.75;100.00;93037.66;5069015;28;20078;-73
2022/12/24 07:46:02;;;;;;;131.13;83.40;;;;;;;0.58;100.00;93014.03;5068833;28;20844;-73
2022/12/24 07:48:30;;;;;;;129.05;84.38;;;;;;;0.91;100.00;93052.06;5068756;28;20052;-73
2022/12/24 07:50:59;;;;;;;123.85;84.05;;;;;;;0.98;100.00;93048.00;5068917;28;20090;-73
2022/12/24 07:53:27;;;;;;;189.32;116.30;;;;;;;0.64;100.00;93038.72;5068311;28;20642;-73
2022/12/24 07:55:54;;;;;;;184.60;111.00;;;;;;;0.82;100.00;93051.25;5068788;28;20106;-73
2022/12/24 07:58:21;;;;;;;189.85;114.90;;;;;;;0.93;100.00;93056.03;5068970;28;20082;-73
2022/12/24 08:00:48;;;;;;;161.25;103.90;;;;;;;0.83;100.00;93050.31;5069214;28;20462;-73
2022/12/24 08:03:17;;;;;;;157.48;105.63;;;;;;;1.10;100.00;93076.31;5068542;28;20565;-73
2022/12/24 08:05:44;;;;;;;151.57;98.22;;;;;;;1.15;100.00;93070.81;5068637;28;20060;-73
2022/12/24 08:08:13;;;;;;;132.98;90.88;;;;;;;1.13;100.00;93065.09;5068429;28;20546;-73
2022/12/24 08:10:40;;;;;;;123.75;82.72;;;;;;;1.20;100.00;93060.97;5069093;28;20044;-72
2022/12/24 08:13:07;;;;;;;129.07;84.97;;;;;;;1.19;100.00;93052.63;5068622;28;20048;-72
2022/12/24 08:15:33;;;;;;;122.75;83.30;;;;;;;1.24;100.00;93064.78;5068764;28;20098;-72
2022/12/24 08:18:00;;;;;;;123.65;80.53;;;;;;;1.25;100.00;93058.78;5068851;28;20071;-72
2022/12/24 08:20:27;;;;;;;129.35;83.38;;;;;;;1.29;100.00;93054.22;5068807;28;20093;-72
2022/12/24 08:22:54;;;;;;;138.80;87.30;;;;;;;1.33;100.00;93055.47;5068329;28;20049;-72
2022/12/24 08:25:22;;;;;;;130.35;88.95;;;;;;;1.30;100.00;93045.66;5068464;28;20512;-72
2022/12/24 08:27:49;;;;;;;132.63;86.13;;;;;;;1.36;100.00;93051.81;5071071;28;20053;-72
2022/12/24 08:30:16;;;;;;;116.00;78.00;;;;;;;1.22;100.00;93056.56;5072702;28;20044;-71
2022/12/24 08:32:42;;;;;;;122.60;77.28;;;;;;;1.05;100.00;93027.91;5071987;28;20048;-71
2022/12/24 08:35:09;;;;;;;123.03;81.70;;;;;;;1.26;100.00;93057.03;5072859;28;20098;-72
2022/12/24 08:37:36;;;;;;;110.63;73.72;;;;;;;1.29;100.00;93055.00;5072240;28;20049;-72
2022/12/24 08:40:03;;;;;;;96.88;62.80;;;;;;;1.17;100.00;93062.06;5072551;28;20045;-71
2022/12/24 08:42:31;;;;;;;86.38;56.10;;;;;;;1.15;100.00;93050.56;5068978;28;20044;-72
2022/12/24 08:44:58;;;;;;;88.95;55.65;;;;;;;1.12;100.00;93056.72;5062571;28;20335;-72
2022/12/24 08:47:25;;;;;;;92.35;51.47;;;;;;;0.75;100.00;93063.72;5072102;28;20041;-71
2022/12/24 08:49:53;;;;;;;101.15;58.63;;;;;;;0.59;100.00;93056.88;5072317;28;20044;-72
2022/12/24 08:52:20;;;;;;;99.10;60.13;;;;;;;0.40;100.00;93055.38;5056734;28;20041;-72
2022/12/24 08:54:47;;;;;;;102.50;60.58;;;;;;;0.46;100.00;93064.88;5066527;28;20044;-72
2022/12/24 08:57:13;;;;;;;113.18;67.80;;;;;;;0.64;100.00;93053.88;5071715;28;20080;-71
2022/12/24 08:59:42;;;;;;;116.78;71.55;;;;;;;0.57;100.00;93063.03;5072354;28;20074;-71
2022/12/24 09:02:08;;;;;;;116.55;74.43;;;;;;;0.82;100.00;93073.25;5072036;28;20044;-71
2022/12/24 09:04:38;;;;;;;122.00;77.45;;;;;;;0.92;100.00;93063.75;5053992;28;20044;-71
2022/12/24 09:07:05;;;;;;;125.70;79.25;;;;;;;1.25;100.00;93070.66;5071954;28;20055;-72
2022/12/24 09:09:32;;;;;;;119.03;76.78;;;;;;;1.39;100.00;93069.25;5060273;28;20110;-72
2022/12/24 09:11:59;;;;;;;103.72;66.90;;;;;;;1.56;100.00;93075.91;5071928;28;20098;-71
2022/12/24 09:14:26;;;;;;;113.25;70.82;;;;;;;1.67;100.00;93081.59;5071497;28;20074;-72
2022/12/24 09:16:54;;;;;;;128.82;81.80;;;;;;;1.70;100.00;93076.22;5071489;28;20463;-71
2022/12/24 09:19:21;;;;;;;100.25;60.88;;;;;;;1.82;100.00;93077.50;5071147;28;20079;-71
2022/12/24 09:21:47;;;;;;;96.32;59.50;;;;;;;1.89;100.00;93076.84;5071861;28;20567;-71
2022/12/24 09:24:14;;;;;;;105.43;66.00;;;;;;;2.03;100.00;93090.63;5071816;28;20094;-71
2022/12/24 09:26:41;;;;;;;113.88;65.78;;;;;;;1.99;100.00;93082.53;5071559;28;20412;-71
2022/12/24 09:29:10;;;;;;;100.38;62.05;;;;;;;1.93;100.00;93067.97;5071772;28;20455;-71
2022/12/24 09:31:36;;;;;;;90.28;56.85;;;;;;;2.16;100.00;93085.06;5071588;28;20053;-71
2022/12/24 09:34:05;;;;;;;82.07;50.70;;;;;;;2.06;100.00;93090.28;5058006;28;20094;-71
2022/12/24 09:36:31;;;;;;;83.25;46.40;;;;;;;1.94;100.00;93075.41;5071537;28;20102;-73
2022/12/24 09:38:58;;;;;;;75.45;44.72;;;;;;;1.98;100.00;93065.75;5066134;28;20052;-71
2022/12/24 09:41:38;;;;;;;72.72;45.30;;;;;;;2.14;100.00;93059.88;5068563;28;20272;-71
2022/12/24 09:44:19;;;;;;;70.80;40.63;;;;;;;2.18;100.00;93065.41;5070846;28;20566;-71
2022/12/24 09:46:49;;;;;;;65.75;38.80;;;;;;;2.27;100.00;93069.50;5071532;28;20102;-71
2022/12/24 09:49:22;;;;;;;77.53;45.45;;;;;;;2.44;100.00;93066.94;5071218;28;20106;-71
2022/12/24 09:51:51;;;;;;;71.03;44.97;;;;;;;2.63;100.00;93064.00;5071020;28;20049;-71
2022/12/24 09:54:24;;;;;;;78.10;46.78;;;;;;;2.59;100.00;93039.16;5064907;28;20118;-71
2022/12/24 09:56:51;;;;;;;73.13;45.05;;;;;;;2.90;100.00;93063.72;5070818;28;20546;-70
2022/12/24 09:59:23;;;;;;;71.68;45.45;;;;;;;2.96;100.00;93063.06;5071322;28;20439;-71
2022/12/24 10:01:52;;;;;;;74.25;45.42;;;;;;;2.84;100.00;93014.47;5071041;28;20127;-71
2022/12/24 10:04:23;;;;;;;71.13;45.35;;;;;;;3.19;100.00;93054.69;5070850;28;20044;-71
2022/12/24 10:06:58;;;;;;;65.00;41.20;;;;;;;3.36;100.00;93049.50;5070694;28;20071;-71
2022/12/24 10:09:35;;;;;;;85.50;55.15;;;;;;;3.45;100.00;93051.03;5070720;28;20101;-71
2022/12/24 10:12:09;;;;;;;69.05;37.67;;;;;;;3.52;100.00;93051.16;5064832;28;20146;-72
2022/12/24 10:14:55;;;;;;;68.57;41.83;;;;;;;3.60;100.00;93040.94;5068792;28;20431;-72
2022/12/24 10:17:38;;;;;;;68.15;42.15;;;;;;;3.69;100.00;93036.56;5059639;28;20060;-71
2022/12/24 10:20:29;;;;;;;69.15;39.15;;;;;;;3.73;100.00;93038.63;5058570;28;20523;-72
2022/12/24 10:23:03;;;;;;;66.43;37.95;;;;;;;3.64;100.00;93037.09;5055886;28;20430;-71
2022/12/24 10:25:36;;;;;;;73.60;43.70;;;;;;;3.79;100.00;93037.13;5052223;28;20036;-71
2022/12/24 10:28:08;;;;;;;78.53;44.50;;;;;;;3.87;100.00;93037.06;5069634;28;20049;-72
2022/12/24 10:30:35;;;;;;;75.35;43.85;;;;;;;3.98;100.00;93035.84;5070820;28;20044;-72
2022/12/24 10:33:03;;;;;;;55.17;30.17;;;;;;;3.79;100.00;93026.97;5056860;28;20154;-71
2022/12/24 10:35:40;;;;;;;54.22;31.08;;;;;;;3.85;100.00;93016.09;5067643;28;20060;-71
2022/12/24 10:38:09;;;;;;;57.80;33.78;;;;;;;3.98;100.00;93012.97;5063650;28;20052;-71
2022/12/24 10:40:40;;;;;;;68.35;40.05;;;;;;;3.71;100.00;93019.44;5070357;28;20044;-71
2022/12/24 10:43:14;;;;;;;72.57;43.05;;;;;;;3.64;100.00;93021.06;5069881;28;20044;-71
2022/12/24 10:45:43;;;;;;;78.93;45.53;;;;;;;3.68;100.00;93010.41;5045416;28;20048;-71
2022/12/24 10:48:18;;;;;;;79.82;48.00;;;;;;;3.83;100.00;93027.41;5069741;28;20098;-71
2022/12/24 10:50:54;;;;;;;95.60;53.08;;;;;;;3.74;100.00;93002.09;5068900;28;20126;-71
2022/12/24 10:53:25;;;;;;;98.60;56.90;;;;;;;3.97;100.00;93013.94;5066936;28;20045;-71
2022/12/24 10:56:02;;;;;;;80.05;50.20;;;;;;;4.17;100.00;93017.72;5045047;28;20052;-71
2022/12/24 10:58:29;;;;;;;70.47;42.08;;;;;;;4.34;100.00;93026.75;5069872;28;20232;-71
2022/12/24 11:00:55;;;;;;;69.82;43.90;;;;;;;4.39;100.00;93032.09;5070114;28;20106;-71
2022/12/24 11:03:24;;;;;;;71.55;41.40;;;;;;;4.50;100.00;93022.47;5058182;28;20052;-71
2022/12/24 11:06:05;;;;;;;60.80;37.58;;;;;;;4.68;100.00;93027.97;5063755;28;20049;-71
2022/12/24 11:08:33;;;;;;;64.50;39.67;;;;;;;4.83;100.00;93016.97;5067630;28;20052;-71
2022/12/24 11:11:02;;;;;;;336.55;193.10;;;;;;;5.05;100.00;93024.66;5064769;28;20132;-71
2022/12/24 11:13:31;;;;;;;123.50;72.38;;;;;;;5.19;100.00;93030.66;5055083;28;20044;-71
2022/12/24 11:16:04;;;;;;;60.53;35.60;;;;;;;5.33;100.00;93024.72;5070006;28;20052;-71
2022/12/24 11:18:33;;;;;;;58.45;34.85;;;;;;;5.30;100.00;93019.19;5069746;28;20048;-71
2022/12/24 11:21:00;;;;;;;49.70;29.55;;;;;;;5.35;100.00;93010.06;5052814;28;20049;-71
2022/12/24 11:23:29;;;;;;;52.03;31.00;;;;;;;5.60;100.00;93016.53;5070114;28;20040;-71
2022/12/24 11:25:57;;;;;;;49.67;31.58;;;;;;;5.81;100.00;93033.56;5069218;28;20049;-71